.
WxDataArchive / Data Records for 2009-09-18
2009-09-17 September 2009 2009-09-19

Data Records for Friday, 18 September 2009

Time	Temp	Chill	HIndex	Humid	Dewpt	 Wind 	HiWind	WindDir	Rain 	Barom 
-----	----	-----	------	-----	-----	------	------	-------	-----	----- 
00:00	53.2	53.2	53.2	90	50.3	0	0	---	0.00	30.147 
00:05	53.1	53.1	53.1	91	50.5	0	0	---	0.00	30.147 
00:10	52.9	52.9	52.9	91	50.3	0	0	---	0.00	30.147 
00:15	52.8	52.8	52.8	91	50.2	0	0	---	0.00	30.147 
00:20	52.6	52.6	52.6	91	50.0	0	0	---	0.00	30.147 
00:25	52.6	52.6	52.6	91	50.0	0	0	---	0.00	30.147 
00:30	52.5	52.5	52.5	92	50.2	0	0	---	0.00	30.151 
00:35	52.3	52.3	52.3	92	50.0	0	0	---	0.00	30.151 
00:40	52.3	52.3	52.3	92	50.0	0	0	---	0.00	30.151 
00:45	52.2	52.2	52.2	92	49.9	0	0	---	0.00	30.148 
00:50	52.2	52.2	52.2	92	49.9	0	0	---	0.00	30.148 
00:55	52.0	52.0	52.0	92	49.7	0	0	---	0.00	30.148 
01:00	51.9	51.9	51.9	92	49.6	0	0	---	0.00	30.147 
01:05	51.9	51.9	51.9	92	49.6	0	0	---	0.00	30.147 
01:10	51.7	51.7	51.7	92	49.5	0	0	---	0.00	30.147 
01:15	51.7	51.7	51.7	92	49.5	0	0	---	0.00	30.145 
01:20	51.6	51.6	51.6	93	49.6	0	0	---	0.00	30.145 
01:25	51.6	51.6	51.6	93	49.6	0	0	---	0.00	30.145 
01:30	51.4	51.4	51.4	93	49.4	0	0	---	0.00	30.146 
01:35	51.3	51.3	51.3	93	49.3	0	0	---	0.00	30.146 
01:40	51.3	51.3	51.3	93	49.3	0	0	---	0.00	30.146 
01:45	51.1	51.1	51.1	93	49.1	0	0	---	0.00	30.144 
01:50	51.1	51.1	51.1	93	49.1	0	0	---	0.00	30.144 
01:55	51.0	51.0	51.0	93	49.0	0	0	---	0.00	30.144 
02:00	51.0	51.0	51.0	93	49.0	0	0	---	0.00	30.144 
02:05	51.0	51.0	51.0	94	49.3	0	0	---	0.00	30.144 
02:10	50.8	50.8	50.8	94	49.1	0	0	---	0.00	30.144 
02:15	50.7	50.7	50.7	94	49.0	0	0	---	0.00	30.136 
02:20	50.5	50.5	50.5	94	48.8	0	0	---	0.00	30.136 
02:25	50.4	50.4	50.4	94	48.7	0	0	---	0.00	30.136 
02:30	50.4	50.4	50.4	94	48.7	0	0	---	0.00	30.132 
02:35	50.1	50.1	50.1	94	48.4	0	0	---	0.00	30.132 
02:40	50.1	50.1	50.1	94	48.4	0	0	---	0.00	30.132 
02:45	49.9	49.9	49.9	94	48.2	0	0	---	0.00	30.134 
02:50	49.8	49.8	49.8	94	48.1	0	0	---	0.00	30.134 
02:55	49.6	49.6	49.6	94	47.9	0	0	---	0.00	30.134 
03:00	49.6	49.6	49.6	94	47.9	0	0	---	0.00	30.134 
03:05	49.5	49.5	49.5	94	47.8	0	0	---	0.00	30.134 
03:10	49.4	49.4	49.4	94	47.7	0	0	---	0.00	30.134 
03:15	49.4	49.4	49.4	94	47.7	0	0	---	0.00	30.130 
03:20	49.2	49.2	49.2	94	47.5	0	0	---	0.00	30.130 
03:25	49.2	49.2	49.2	94	47.5	0	0	---	0.00	30.130 
03:30	49.2	49.2	49.2	95	47.8	0	0	---	0.00	30.131 
03:35	49.4	49.4	49.4	95	48.0	0	0	---	0.00	30.131 
03:40	49.5	49.5	49.5	95	48.1	0	0	---	0.00	30.131 
03:45	49.4	49.4	49.4	95	48.0	0	0	---	0.00	30.132 
03:50	49.4	49.4	49.4	95	48.0	0	0	---	0.00	30.132 
03:55	49.4	49.4	49.4	95	48.0	0	0	---	0.00	30.132 
04:00	49.4	49.4	49.4	95	48.0	0	0	---	0.00	30.131 
04:05	49.4	49.4	49.4	95	48.0	0	0	---	0.00	30.131 
04:10	49.4	49.4	49.4	95	48.0	0	0	---	0.00	30.131 
04:15	49.2	49.2	49.2	95	47.8	0	0	---	0.00	30.129 
04:20	49.2	49.2	49.2	95	47.8	0	0	---	0.00	30.129 
04:25	49.1	49.1	49.1	95	47.7	0	0	---	0.00	30.129 
04:30	48.9	48.9	48.9	95	47.5	0	0	---	0.00	30.130 
04:35	48.8	48.8	48.8	95	47.4	0	0	---	0.00	30.130 
04:40	48.6	48.6	48.6	95	47.2	0	0	---	0.00	30.130 
04:45	48.5	48.5	48.5	95	47.1	0	0	---	0.00	30.131 
04:50	48.3	48.3	48.3	95	46.9	0	0	---	0.00	30.131 
04:55	48.2	48.2	48.2	95	46.8	0	0	---	0.00	30.131 
05:00	48.2	48.2	48.2	95	46.8	0	0	---	0.00	30.132 
05:05	48.0	48.0	48.0	95	46.6	0	0	---	0.00	30.132 
05:10	47.9	47.9	47.9	95	46.5	0	0	---	0.00	30.132 
05:15	47.7	47.7	47.7	95	46.3	0	0	---	0.00	30.133 
05:20	47.7	47.7	47.7	95	46.3	0	0	---	0.00	30.133 
05:25	47.6	47.6	47.6	95	46.2	0	0	---	0.00	30.133 
05:30	47.4	47.4	47.4	95	46.0	0	0	---	0.00	30.135 
05:35	47.4	47.4	47.4	95	46.0	0	0	---	0.00	30.135 
05:40	47.3	47.3	47.3	95	45.9	0	0	---	0.00	30.135 
05:45	47.3	47.3	47.3	95	45.9	0	0	---	0.00	30.134 
05:50	47.1	47.1	47.1	95	45.7	0	0	---	0.00	30.134 
05:55	47.1	47.1	47.1	95	45.7	0	0	---	0.00	30.134 
06:00	47.0	47.0	47.0	96	45.9	0	0	---	0.00	30.134 
06:05	47.0	47.0	47.0	96	45.9	0	0	---	0.00	30.134 
06:10	46.8	46.8	46.8	96	45.7	0	0	---	0.00	30.134 
06:15	46.8	46.8	46.8	96	45.7	0	0	---	0.00	30.136 
06:20	46.7	46.7	46.7	95	45.3	0	0	---	0.00	30.136 
06:25	46.7	46.7	46.7	96	45.6	0	0	---	0.00	30.136 
06:30	46.7	46.7	46.7	96	45.6	0	0	---	0.00	30.143 
06:35	46.5	46.5	46.5	96	45.4	0	0	---	0.00	30.143 
06:40	46.5	46.5	46.5	96	45.4	0	0	---	0.00	30.143 
06:45	46.5	46.5	46.5	96	45.4	0	0	---	0.00	30.148 
06:50	46.4	46.4	46.4	96	45.3	0	0	---	0.00	30.148 
06:55	46.4	46.4	46.4	96	45.3	0	0	---	0.00	30.148 
07:00	46.4	46.4	46.4	96	45.3	0	0	---	0.00	30.150 
07:05	46.4	46.4	46.4	96	45.3	0	0	---	0.00	30.150 
07:10	46.2	46.2	46.2	96	45.1	0	0	---	0.00	30.150 
07:15	46.2	46.2	46.2	96	45.1	0	0	---	0.00	30.156 
07:20	46.2	46.2	46.2	96	45.1	0	0	---	0.00	30.156 
07:25	46.2	46.2	46.2	96	45.1	0	0	---	0.00	30.156 
07:30	46.1	46.1	46.1	96	45.0	0	0	---	0.00	30.158 
07:35	46.1	46.1	46.1	96	45.0	0	0	---	0.00	30.158 
07:40	46.1	46.1	46.1	96	45.0	0	0	---	0.00	30.158 
07:45	46.1	46.1	46.1	96	45.0	0	0	---	0.00	30.160 
07:50	46.1	46.1	46.1	96	45.0	0	0	---	0.00	30.160 
07:55	46.2	46.2	46.2	96	45.1	0	0	---	0.00	30.160 
08:00	46.4	46.4	46.4	96	45.3	0	0	---	0.00	30.168 
08:05	46.5	46.5	46.5	96	45.4	0	0	---	0.00	30.168 
08:10	46.7	46.7	46.7	96	45.6	0	0	---	0.00	30.168 
08:15	47.0	47.0	47.0	96	45.9	0	0	---	0.00	30.174 
08:20	47.4	47.4	47.4	96	46.3	0	0	---	0.00	30.174 
08:25	48.2	48.2	48.2	96	47.1	0	0	---	0.00	30.174 
08:30	48.8	48.8	48.8	96	47.7	0	0	---	0.00	30.175 
08:35	49.4	49.4	49.4	97	48.6	0	0	---	0.00	30.175 
08:40	49.8	49.8	49.8	96	48.7	0	0	---	0.00	30.175 
08:45	50.4	50.4	50.4	96	49.3	0	0	---	0.00	30.179 
08:50	50.8	50.8	50.8	97	50.0	0	0	---	0.00	30.179 
08:55	51.3	51.3	51.3	97	50.5	0	0	---	0.00	30.179 
09:00	51.7	51.7	51.7	97	50.9	0	0	---	0.00	30.178 
09:05	52.2	52.2	52.2	97	51.4	0	0	---	0.00	30.178 
09:10	52.5	52.5	52.5	97	51.7	0	0	---	0.00	30.178 
09:15	52.9	52.9	52.9	96	51.8	0	0	---	0.00	30.178 
09:20	53.3	53.3	53.3	96	52.2	0	0	---	0.00	30.178 
09:25	53.8	53.8	53.8	96	52.7	0	0	---	0.00	30.178 
09:30	54.4	54.4	54.4	96	53.3	0	0	---	0.00	30.179 
09:35	54.8	54.8	54.8	96	53.7	0	0	---	0.00	30.179 
09:40	55.3	55.3	55.3	96	54.2	0	0	---	0.00	30.179 
09:45	56.0	56.0	56.0	96	54.9	0	0	---	0.00	30.179 
09:50	56.9	56.9	56.9	95	55.5	0	0	---	0.00	30.179 
09:55	57.6	57.6	57.6	93	55.6	0	0	---	0.00	30.179 
10:00	58.4	58.4	58.4	90	55.5	0	0	---	0.00	30.179 
10:05	59.9	59.9	59.9	84	55.0	0	0	---	0.00	30.179 
10:10	61.2	61.2	61.2	81	55.3	0	1	112	0.00	30.179 
10:15	62.1	62.1	62.1	76	54.4	0	0	---	0.00	30.179 
10:20	62.9	62.9	62.9	72	53.7	0	1	112	0.00	30.179 
10:25	64.0	64.0	64.0	70	54.0	0	1	112	0.00	30.179 
10:30	65.0	65.0	65.0	67	53.8	0	0	---	0.00	30.174 
10:35	65.8	65.8	65.8	65	53.7	0	1	112	0.00	30.174 
10:40	66.6	66.6	66.6	60	52.3	0	1	112	0.00	30.174 
10:45	67.6	67.6	67.6	59	52.8	0	1	112	0.00	30.173 
10:50	67.8	67.8	67.8	58	52.5	0	1	112	0.00	30.173 
10:55	68.1	68.1	68.1	47	47.1	0	2	112	0.00	30.173 
11:00	68.4	68.4	68.4	48	47.9	0	3	112	0.00	30.176 
11:05	69.1	69.1	69.1	48	48.6	0	4	112	0.00	30.176 
11:10	69.6	69.6	69.6	46	47.9	1	4	90	0.00	30.176 
11:15	69.8	69.8	69.8	49	49.8	1	3	22	0.00	30.176 
11:20	70.3	70.3	70.3	44	47.3	1	3	112	0.00	30.176 
11:25	70.6	70.6	70.6	45	48.2	1	4	112	0.00	30.176 
11:30	70.4	70.4	70.4	43	46.8	0	3	112	0.00	30.178 
11:35	70.3	70.3	70.3	46	48.5	0	3	112	0.00	30.178 
11:40	70.4	70.4	70.4	48	49.8	0	3	68	0.00	30.178 
11:45	70.4	70.4	70.4	44	47.4	1	5	112	0.00	30.178 
11:50	70.9	70.9	70.9	46	49.1	0	2	112	0.00	30.178 
11:55	71.3	71.3	71.3	44	48.2	0	2	112	0.00	30.178 
12:00	71.3	71.3	71.3	42	47.0	0	1	90	0.00	30.175 
12:05	71.3	71.3	71.3	43	47.6	0	2	45	0.00	30.175 
12:10	71.8	71.8	71.8	43	48.1	0	3	45	0.00	30.175 
12:15	71.5	71.5	71.5	46	49.6	1	4	270	0.00	30.172 
12:20	71.1	71.1	71.1	44	48.1	1	3	270	0.00	30.172 
12:25	70.9	70.9	70.9	45	48.5	0	1	270	0.00	30.172 
12:30	71.5	71.5	71.5	47	50.2	0	1	270	0.00	30.171 
12:35	72.1	72.1	72.1	42	47.7	0	2	270	0.00	30.171 
12:40	72.5	72.5	72.5	40	46.8	1	3	270	0.00	30.171 
12:45	72.1	72.1	72.1	45	49.6	0	2	270	0.00	30.170 
12:50	72.1	72.1	72.1	41	47.1	0	1	270	0.00	30.170 
12:55	72.3	72.3	72.3	40	46.6	0	1	270	0.00	30.170 
13:00	72.5	72.5	72.5	40	46.8	1	4	90	0.00	30.164 
13:05	72.8	72.8	72.8	44	49.6	0	3	90	0.00	30.164 
13:10	73.0	73.0	73.0	41	47.9	0	1	112	0.00	30.164 
13:15	73.0	73.0	73.0	38	45.9	0	2	112	0.00	30.162 
13:20	73.3	73.3	73.3	42	48.8	0	2	112	0.00	30.162 
13:25	73.3	73.3	73.3	43	49.4	1	3	112	0.00	30.162 
13:30	73.7	73.7	73.7	39	47.2	0	3	112	0.00	30.161 
13:35	73.9	73.9	73.9	39	47.4	0	2	112	0.00	30.161 
13:40	73.9	73.9	73.9	38	46.7	1	3	158	0.00	30.161 
13:45	74.0	74.0	74.0	40	48.1	0	1	22	0.00	30.159 
13:50	74.0	74.0	74.0	39	47.5	0	2	22	0.00	30.159 
13:55	74.4	74.4	74.4	38	47.1	1	3	22	0.00	30.159 
14:00	74.7	74.7	74.7	38	47.4	0	3	90	0.00	30.157 
14:05	74.7	74.7	74.7	36	46.0	0	3	90	0.00	30.157 
14:10	75.1	75.1	77.6	41	49.8	0	3	90	0.00	30.157 
14:15	75.3	75.3	77.5	39	48.6	0	1	68	0.00	30.158 
14:20	75.1	75.1	77.4	37	47.0	1	7	135	0.00	30.158 
14:25	74.7	74.7	74.7	39	48.1	1	4	90	0.00	30.158 
14:30	74.7	74.7	74.7	39	48.1	0	3	112	0.00	30.153 
14:35	74.7	74.7	74.7	35	45.2	0	2	112	0.00	30.153 
14:40	75.1	75.1	77.4	37	47.0	1	4	112	0.00	30.153 
14:45	75.3	75.3	77.4	36	46.5	0	2	112	0.00	30.149 
14:50	75.6	75.6	77.6	39	48.9	0	2	112	0.00	30.149 
14:55	75.6	75.6	77.6	39	48.9	1	3	90	0.00	30.149 
15:00	75.6	75.6	77.6	37	47.5	1	4	112	0.00	30.147 
15:05	75.6	75.6	77.6	39	48.9	0	2	112	0.00	30.147 
15:10	75.6	75.6	77.6	37	47.5	1	3	112	0.00	30.147 
15:15	75.8	75.8	77.7	39	49.1	0	2	112	0.00	30.151 
15:20	75.8	75.8	77.8	41	50.4	0	2	112	0.00	30.151 
15:25	75.4	75.4	77.5	37	47.3	1	6	112	0.00	30.151 
15:30	75.4	75.4	77.6	39	48.7	1	3	112	0.00	30.145 
15:35	75.8	75.8	77.8	43	51.7	0	4	112	0.00	30.145 
15:40	76.1	76.1	77.9	42	51.3	1	4	68	0.00	30.145 
15:45	76.0	76.0	77.8	40	49.9	0	1	68	0.00	30.142 
15:50	75.8	75.8	77.8	42	51.1	1	5	135	0.00	30.142 
15:55	75.8	75.8	77.8	43	51.7	1	3	158	0.00	30.142 
16:00	75.8	75.8	77.9	44	52.3	0	3	135	0.00	30.140 
16:05	75.6	75.6	77.8	44	52.1	2	4	90	0.00	30.140 
16:10	75.8	75.8	77.9	44	52.3	0	3	90	0.00	30.140 
16:15	75.4	75.4	77.7	42	50.7	2	5	90	0.00	30.138 
16:20	75.4	75.4	77.8	47	53.7	1	6	112	0.00	30.138 
16:25	75.4	75.4	77.8	47	53.7	0	3	112	0.00	30.138 
16:30	75.6	75.6	77.8	46	53.3	0	3	90	0.00	30.139 
16:35	75.6	75.6	77.8	46	53.3	0	3	68	0.00	30.139 
16:40	75.4	75.4	77.8	46	53.2	1	3	135	0.00	30.139 
16:45	75.3	75.3	77.7	50	55.4	1	6	90	0.00	30.137 
16:50	75.3	75.3	77.7	49	54.8	0	2	90	0.00	30.137 
16:55	75.3	75.3	77.7	50	55.4	1	4	90	0.00	30.137 
17:00	75.1	75.1	77.7	50	55.2	0	1	90	0.00	30.135 
17:05	75.1	75.1	77.7	50	55.2	0	2	90	0.00	30.135 
17:10	74.9	74.9	74.9	52	56.1	1	3	90	0.00	30.135 
17:15	74.9	74.9	74.9	51	55.5	0	2	90	0.00	30.139 
17:20	74.9	74.9	74.9	52	56.1	1	3	90	0.00	30.139 
17:25	74.7	74.7	74.7	52	55.9	0	2	90	0.00	30.139 
17:30	74.7	74.7	74.7	52	55.9	1	4	135	0.00	30.137 
17:35	74.6	74.6	74.6	53	56.3	0	1	158	0.00	30.137 
17:40	74.6	74.6	74.6	53	56.3	0	1	158	0.00	30.137 
17:45	74.4	74.4	74.4	53	56.1	0	2	158	0.00	30.134 
17:50	74.4	74.4	74.4	53	56.1	0	2	0	0.00	30.134 
17:55	74.4	74.4	74.4	54	56.7	0	1	0	0.00	30.134 
18:00	74.4	74.4	74.4	54	56.7	0	2	338	0.00	30.138 
18:05	74.2	74.2	74.2	53	56.0	0	3	158	0.00	30.138 
18:10	74.0	74.0	74.0	54	56.3	0	3	158	0.00	30.138 
18:15	74.0	74.0	74.0	55	56.8	0	1	270	0.00	30.138 
18:20	73.9	73.9	73.9	55	56.7	0	2	270	0.00	30.138 
18:25	73.9	73.9	73.9	55	56.7	0	2	135	0.00	30.138 
18:30	73.7	73.7	73.7	56	57.0	0	2	112	0.00	30.144 
18:35	73.5	73.5	73.5	56	56.8	0	2	112	0.00	30.144 
18:40	73.3	73.3	73.3	57	57.1	0	1	112	0.00	30.144 
18:45	73.2	73.2	73.2	58	57.5	0	1	112	0.00	30.147 
18:50	73.0	73.0	73.0	58	57.3	0	0	---	0.00	30.147 
18:55	72.8	72.8	72.8	58	57.1	0	1	112	0.00	30.147 
19:00	72.8	72.8	72.8	58	57.1	0	0	---	0.00	30.151 
19:05	72.5	72.5	72.5	60	57.8	0	0	---	0.00	30.151 
19:10	72.3	72.3	72.3	60	57.6	0	0	---	0.00	30.151 
19:15	72.0	72.0	72.0	61	57.8	0	0	---	0.00	30.151 
19:20	71.8	71.8	71.8	61	57.6	0	0	---	0.00	30.151 
19:25	71.5	71.5	71.5	62	57.8	0	0	---	0.00	30.151 
19:30	71.1	71.1	71.1	62	57.4	0	0	---	0.00	30.154 
19:35	70.8	70.8	70.8	63	57.6	0	0	---	0.00	30.154 
19:40	70.4	70.4	70.4	64	57.6	0	0	---	0.00	30.154 
19:45	70.1	70.1	70.1	65	57.8	0	0	---	0.00	30.161 
19:50	69.6	69.6	69.6	65	57.3	0	0	---	0.00	30.161 
19:55	69.3	69.3	69.3	66	57.4	0	0	---	0.00	30.161 
20:00	68.9	68.9	68.9	67	57.5	0	0	---	0.00	30.164 
20:05	68.6	68.6	68.6	68	57.6	0	0	---	0.00	30.164 
20:10	68.3	68.3	68.3	69	57.7	0	0	---	0.00	30.164 
20:15	68.1	68.1	68.1	69	57.5	0	0	---	0.00	30.161 
20:20	67.8	67.8	67.8	70	57.6	0	0	---	0.00	30.161 
20:25	67.4	67.4	67.4	71	57.7	0	0	---	0.00	30.161 
20:30	67.3	67.3	67.3	72	58.0	0	0	---	0.00	30.166 
20:35	66.9	66.9	66.9	72	57.6	0	0	---	0.00	30.166 
20:40	66.6	66.6	66.6	73	57.7	0	0	---	0.00	30.166 
20:45	66.4	66.4	66.4	74	57.9	0	0	---	0.00	30.174 
20:50	66.1	66.1	66.1	75	57.9	0	0	---	0.00	30.174 
20:55	65.8	65.8	65.8	76	58.0	0	0	---	0.00	30.174 
21:00	65.5	65.5	65.5	77	58.1	0	0	---	0.00	30.178 
21:05	65.3	65.3	65.3	78	58.3	0	0	---	0.00	30.178 
21:10	65.0	65.0	65.0	79	58.3	0	0	---	0.00	30.178 
21:15	64.8	64.8	64.8	79	58.1	0	0	---	0.00	30.183 
21:20	64.5	64.5	64.5	80	58.2	0	0	---	0.00	30.183 
21:25	64.3	64.3	64.3	81	58.3	0	0	---	0.00	30.183 
21:30	64.2	64.2	64.2	81	58.2	0	0	---	0.00	30.188 
21:35	63.9	63.9	63.9	81	57.9	0	0	---	0.00	30.188 
21:40	63.7	63.7	63.7	82	58.1	0	0	---	0.00	30.188 
21:45	63.5	63.5	63.5	83	58.2	0	0	---	0.00	30.190 
21:50	63.2	63.2	63.2	84	58.3	0	0	---	0.00	30.190 
21:55	63.1	63.1	63.1	84	58.2	0	0	---	0.00	30.190 
22:00	62.9	62.9	62.9	84	58.0	0	0	---	0.00	30.194 
22:05	62.7	62.7	62.7	85	58.1	0	0	---	0.00	30.194 
22:10	62.4	62.4	62.4	85	57.8	0	0	---	0.00	30.194 
22:15	62.3	62.3	62.3	85	57.7	0	0	---	0.00	30.187 
22:20	62.1	62.1	62.1	86	57.9	0	0	---	0.00	30.187 
22:25	62.0	62.0	62.0	86	57.8	0	0	---	0.00	30.187 
22:30	61.8	61.8	61.8	87	57.9	0	0	---	0.00	30.191 
22:35	61.8	61.8	61.8	87	57.9	0	0	---	0.00	30.191 
22:40	61.6	61.6	61.6	87	57.7	0	0	---	0.00	30.191 
22:45	61.5	61.5	61.5	87	57.6	0	0	---	0.00	30.195 
22:50	61.5	61.5	61.5	87	57.6	0	0	---	0.00	30.195 
22:55	61.3	61.3	61.3	87	57.4	0	0	---	0.00	30.195 
23:00	61.3	61.3	61.3	87	57.4	0	0	---	0.00	30.198 
23:05	61.2	61.2	61.2	87	57.3	0	0	---	0.00	30.198 
23:10	61.0	61.0	61.0	87	57.1	0	0	---	0.00	30.198 
23:15	61.0	61.0	61.0	88	57.4	0	0	---	0.00	30.196 
23:20	60.9	60.9	60.9	88	57.3	0	0	---	0.00	30.196 
23:25	60.7	60.7	60.7	88	57.1	0	0	---	0.00	30.196 
23:30	60.9	60.9	60.9	88	57.3	0	1	112	0.00	30.201 
23:35	61.6	61.6	61.6	85	57.0	2	4	90	0.00	30.201 
23:40	62.7	62.7	62.7	82	57.1	2	5	90	0.00	30.201 
23:45	63.1	63.1	63.1	81	57.2	1	3	112	0.00	30.208 
23:50	63.2	63.2	63.2	80	56.9	1	5	112	0.00	30.208 
23:55	63.2	63.2	63.2	81	57.3	1	4	112	0.00	30.208 

CoCoRaHS
IN-AL-39
A2 Web Hosting
Creative Commons License
GoDaddy
search engine by freefind advanced

loaded 2018-11-17 06:04:28 • last modified 2010-11-18 10:43:29
Privacy PolicyDisclaimer
• wx.awcolley.com is powered by PmWiki v.2002016 •
• all content (unless otherwise noted) © 2018 A W Colley